Time;durP1;ratioP1;P1;durP2;ratioP2;P2;SDS_P1;SDS_P2;PMS_P1;PMS_P2;Temp;Humidity;BMP_temperature;BMP_pressure;BME280_temperature;BME280_humidity;BME280_pressure;Samples;Min_cycle;Max_cycle;Signal;HPM_P1;HPM_P2
2023/12/19 00:01:36;;;;;;;2.47;1.97;;;;;;;;;;5094194;28;20239;-78
2023/12/19 00:04:03;;;;;;;2.43;2.10;;;;;;;;;;5094825;28;20177;-78
2023/12/19 00:06:30;;;;;;;4.00;2.40;;;;;;;;;;5095165;28;20607;-77
2023/12/19 00:08:57;;;;;;;2.80;2.03;;;;;;;;;;5094183;28;20174;-77
2023/12/19 00:11:23;;;;;;;4.07;2.53;;;;;;;;;;5095217;28;20519;-76
2023/12/19 00:13:50;;;;;;;2.37;2.10;;;;;;;;;;5077393;28;20285;-77
2023/12/19 00:16:36;;;;;;;2.53;2.10;;;;;;;;;;5095891;28;20214;-76
2023/12/19 00:19:02;;;;;;;2.03;1.60;;;;;;;;;;5077311;28;20737;-78
2023/12/19 00:21:29;;;;;;;3.07;2.00;;;;;;;;;;5095609;28;20218;-77
2023/12/19 00:23:56;;;;;;;2.23;1.67;;;;;;;;;;5094367;28;20181;-78
2023/12/19 00:26:23;;;;;;;2.30;1.60;;;;;;;;;;5077207;28;20235;-76
2023/12/19 00:29:07;;;;;;;2.70;1.80;;;;;;;;;;5094013;28;20176;-78
2023/12/19 00:31:34;;;;;;;3.50;1.90;;;;;;;;;;5094920;28;20177;-76
2023/12/19 00:34:01;;;;;;;2.00;1.60;;;;;;;;;;5095580;28;20272;-78
2023/12/19 00:36:28;;;;;;;1.80;1.33;;;;;;;;;;5076947;28;20189;-78
2023/12/19 00:38:55;;;;;;;1.90;1.70;;;;;;;;;;5077022;28;20185;-76
2023/12/19 00:41:22;;;;;;;1.73;1.37;;;;;;;;;;5094939;28;20186;-77
2023/12/19 00:43:49;;;;;;;2.00;1.33;;;;;;;;;;5093776;28;20561;-79
2023/12/19 00:46:15;;;;;;;1.70;1.50;;;;;;;;;;5076748;28;20728;-76
2023/12/19 00:48:42;;;;;;;2.20;1.70;;;;;;;;;;5077087;28;20186;-78
2023/12/19 00:51:12;;;;;;;1.77;1.53;;;;;;;;;;5077453;28;20490;-78
2023/12/19 00:53:39;;;;;;;3.13;1.80;;;;;;;;;;5077282;28;20651;-79
2023/12/19 00:56:07;;;;;;;1.50;1.40;;;;;;;;;;5076381;28;20218;-77
2023/12/19 00:58:37;;;;;;;2.20;1.50;;;;;;;;;;5077097;28;20189;-78
2023/12/19 01:01:07;;;;;;;1.03;0.73;;;;;;;;;;5093746;28;20197;-76
2023/12/19 01:03:34;;;;;;;1.57;1.00;;;;;;;;;;5093816;28;20174;-79
2023/12/19 01:06:02;;;;;;;1.83;1.30;;;;;;;;;;5076320;28;20300;-79
2023/12/19 01:08:29;;;;;;;1.57;1.30;;;;;;;;;;5093298;28;20698;-76
2023/12/19 01:10:56;;;;;;;1.40;0.93;;;;;;;;;;5094882;28;20228;-78
2023/12/19 01:53:17;;;;;;;1.90;1.70;;;;;;;;;;5093711;28;20149;-76
2023/12/19 01:55:43;;;;;;;2.40;1.90;;;;;;;;;;5092275;28;20181;-77
2023/12/19 01:58:10;;;;;;;5.33;2.07;;;;;;;;;;5093986;28;20261;-78
2023/12/19 02:00:37;;;;;;;2.70;2.27;;;;;;;;;;5093422;28;20191;-78
2023/12/19 02:03:04;;;;;;;3.63;2.73;;;;;;;;;;5059822;28;20566;-78
2023/12/19 02:05:32;;;;;;;2.37;2.00;;;;;;;;;;5092804;28;20196;-79
2023/12/19 02:07:58;;;;;;;4.40;2.53;;;;;;;;;;5092824;28;20512;-77
2023/12/19 02:10:25;;;;;;;3.60;2.50;;;;;;;;;;5092674;28;20185;-78
2023/12/19 02:12:52;;;;;;;2.90;2.60;;;;;;;;;;5092402;28;20185;-76
2023/12/19 02:15:19;;;;;;;4.00;3.03;;;;;;;;;;5075898;28;20193;-77
2023/12/19 02:17:46;;;;;;;2.67;2.30;;;;;;;;;;5075647;28;20753;-77
2023/12/19 02:20:14;;;;;;;2.93;2.63;;;;;;;;;;5075932;28;20197;-77
2023/12/19 02:22:41;;;;;;;4.13;2.70;;;;;;;;;;5075592;28;20182;-78
2023/12/19 02:25:08;;;;;;;3.40;2.67;;;;;;;;;;5093914;28;20201;-75
2023/12/19 02:27:39;;;;;;;3.20;2.47;;;;;;;;;;5076718;28;20474;-80
2023/12/19 02:30:07;;;;;;;3.60;2.77;;;;;;;;;;5096844;28;20189;-76
2023/12/19 02:32:34;;;;;;;3.70;3.33;;;;;;;;;;5079613;28;20186;-76
2023/12/19 02:35:18;;;;;;;4.50;3.07;;;;;;;;;;5097345;28;20161;-78
2023/12/19 02:37:45;;;;;;;4.40;2.90;;;;;;;;;;5079595;28;20181;-79
2023/12/19 02:40:12;;;;;;;3.97;3.37;;;;;;;;;;5097673;28;20185;-79
2023/12/19 02:42:39;;;;;;;5.97;4.00;;;;;;;;;;5097129;28;20636;-80
2023/12/19 02:45:10;;;;;;;3.87;3.33;;;;;;;;;;5079711;28;20197;-79
2023/12/19 02:47:37;;;;;;;5.27;3.60;;;;;;;;;;5096677;28;20197;-79
2023/12/19 02:50:04;;;;;;;4.30;3.50;;;;;;;;;;5096304;28;20242;-79
2023/12/19 02:52:31;;;;;;;5.20;3.73;;;;;;;;;;5095909;28;20709;-78
2023/12/19 02:54:57;;;;;;;5.60;4.17;;;;;;;;;;5097486;28;20276;-78
2023/12/19 02:57:24;;;;;;;6.13;3.93;;;;;;;;;;5078927;28;20213;-79
2023/12/19 02:59:51;;;;;;;5.57;4.43;;;;;;;;;;5062421;28;20209;-78
2023/12/19 03:02:18;;;;;;;5.63;4.03;;;;;;;;;;5096829;28;20185;-76
2023/12/19 03:04:44;;;;;;;6.43;4.60;;;;;;;;;;5095605;28;20268;-77
2023/12/19 03:07:11;;;;;;;6.10;3.13;;;;;;;;;;5078681;28;20517;-78
2023/12/19 03:09:38;;;;;;;7.10;4.70;;;;;;;;;;5079071;28;20595;-78
2023/12/19 03:12:05;;;;;;;7.70;4.77;;;;;;;;;;5078609;28;20196;-77
2023/12/19 03:14:32;;;;;;;6.20;4.80;;;;;;;;;;5096283;28;20272;-77
2023/12/19 03:17:00;;;;;;;6.07;4.60;;;;;;;;;;5078564;28;20203;-76
2023/12/19 03:19:26;;;;;;;5.80;3.90;;;;;;;;;;5096846;28;20243;-79
2023/12/19 03:21:54;;;;;;;7.60;5.17;;;;;;;;;;5095692;28;20205;-78
2023/12/19 03:24:21;;;;;;;6.47;4.47;;;;;;;;;;5095953;28;20181;-77
2023/12/19 03:26:48;;;;;;;5.83;4.33;;;;;;;;;;5096406;28;20220;-77
2023/12/19 03:29:15;;;;;;;6.07;4.10;;;;;;;;;;5096119;28;20223;-76
2023/12/19 03:31:42;;;;;;;3.60;1.93;;;;;;;;;;5078213;28;20612;-77
2023/12/19 03:34:09;;;;;;;4.50;3.20;;;;;;;;;;5078458;28;20621;-78
2023/12/19 03:36:35;;;;;;;4.33;3.50;;;;;;;;;;5095389;28;20234;-78
2023/12/19 03:39:19;;;;;;;5.50;3.87;;;;;;;;;;5094152;28;20215;-78
2023/12/19 03:41:46;;;;;;;5.70;3.83;;;;;;;;;;5077905;28;20185;-77
2023/12/19 03:44:30;;;;;;;3.40;2.87;;;;;;;;;;5096061;28;20157;-77
2023/12/19 03:46:56;;;;;;;4.70;3.50;;;;;;;;;;5061385;28;20589;-77
2023/12/19 03:49:24;;;;;;;4.60;3.07;;;;;;;;;;5094890;28;20258;-77
2023/12/19 03:51:51;;;;;;;4.57;3.17;;;;;;;;;;5095608;28;20238;-77
2023/12/19 03:54:18;;;;;;;3.07;2.20;;;;;;;;;;5095993;28;20268;-77
2023/12/19 03:56:46;;;;;;;2.43;1.80;;;;;;;;;;5078011;28;20278;-77
2023/12/19 03:59:13;;;;;;;4.13;2.80;;;;;;;;;;5077916;28;20284;-78
2023/12/19 04:01:44;;;;;;;4.10;3.13;;;;;;;;;;5095584;28;20181;-76
2023/12/19 04:04:11;;;;;;;3.17;2.57;;;;;;;;;;5096040;28;20197;-78
2023/12/19 04:06:42;;;;;;;4.97;3.30;;;;;;;;;;5094842;28;20194;-77
2023/12/19 04:09:09;;;;;;;2.80;1.83;;;;;;;;;;5077258;28;20212;-76
2023/12/19 04:11:36;;;;;;;2.60;2.07;;;;;;;;;;5094647;28;20185;-79
2023/12/19 04:14:03;;;;;;;3.50;2.50;;;;;;;;;;5079777;28;20212;-75
2023/12/19 04:16:30;;;;;;;3.90;2.37;;;;;;;;;;5096005;28;20268;-75
2023/12/19 04:18:57;;;;;;;5.00;3.73;;;;;;;;;;5095944;28;20568;-75
2023/12/19 04:21:25;;;;;;;3.10;2.60;;;;;;;;;;5078678;28;20193;-75
2023/12/19 04:23:52;;;;;;;4.33;2.90;;;;;;;;;;5097137;28;20181;-78
2023/12/19 04:26:19;;;;;;;4.20;3.57;;;;;;;;;;5094767;28;20235;-77
2023/12/19 04:28:46;;;;;;;4.37;2.73;;;;;;;;;;5077834;28;20221;-76
2023/12/19 04:31:13;;;;;;;2.97;2.27;;;;;;;;;;5095842;28;20189;-76
2023/12/19 04:33:40;;;;;;;4.07;2.63;;;;;;;;;;5095329;28;20192;-76
2023/12/19 04:36:07;;;;;;;3.33;2.70;;;;;;;;;;5095872;28;20567;-75
2023/12/19 04:38:34;;;;;;;4.07;2.70;;;;;;;;;;5094373;28;20212;-76
2023/12/19 04:41:18;;;;;;;6.17;3.63;;;;;;;;;;5080266;28;20158;-78
2023/12/19 04:43:45;;;;;;;3.97;2.80;;;;;;;;;;5077603;28;20190;-76
2023/12/19 04:46:12;;;;;;;2.77;1.83;;;;;;;;;;5095531;28;20207;-77
2023/12/19 04:48:40;;;;;;;4.50;3.03;;;;;;;;;;5077816;28;20235;-78
2023/12/19 04:51:08;;;;;;;4.10;3.00;;;;;;;;;;5094136;28;20243;-79
2023/12/19 04:53:36;;;;;;;7.40;4.60;;;;;;;;;;5095462;28;20528;-79
2023/12/19 04:56:03;;;;;;;5.67;3.43;;;;;;;;;;5076894;28;20271;-76
2023/12/19 04:58:30;;;;;;;5.87;4.27;;;;;;;;;;5094777;28;20188;-77
2023/12/19 05:00:57;;;;;;;3.93;2.90;;;;;;;;;;5076758;28;20234;-82
2023/12/19 05:03:25;;;;;;;6.30;4.17;;;;;;;;;;5076501;28;20186;-81
2023/12/19 05:05:52;;;;;;;6.60;4.37;;;;;;;;;;5076362;28;20209;-80
2023/12/19 05:08:19;;;;;;;4.40;3.57;;;;;;;;;;5093839;28;20532;-81
2023/12/19 05:10:46;;;;;;;5.93;3.53;;;;;;;;;;5094171;28;20717;-82
2023/12/19 05:13:12;;;;;;;6.73;4.03;;;;;;;;;;5093568;28;20590;-81
2023/12/19 05:15:39;;;;;;;5.83;4.20;;;;;;;;;;5094250;28;20186;-81
2023/12/19 05:18:06;;;;;;;4.87;2.93;;;;;;;;;;5092963;28;20208;-83
2023/12/19 05:20:32;;;;;;;5.07;3.50;;;;;;;;;;5093953;28;20288;-81
2023/12/19 05:23:02;;;;;;;6.80;4.80;;;;;;;;;;5076151;28;20532;-80
2023/12/19 05:25:29;;;;;;;6.73;3.77;;;;;;;;;;5094561;28;20213;-78
2023/12/19 05:27:56;;;;;;;6.20;4.20;;;;;;;;;;5059881;28;20192;-76
2023/12/19 05:30:23;;;;;;;6.13;4.47;;;;;;;;;;5076178;28;20646;-76
2023/12/19 05:32:50;;;;;;;5.63;3.60;;;;;;;;;;5075813;28;20629;-75
2023/12/19 05:35:17;;;;;;;5.63;3.80;;;;;;;;;;5075921;28;20186;-75
2023/12/19 05:37:44;;;;;;;6.17;4.03;;;;;;;;;;5059594;28;20597;-75
2023/12/19 05:40:11;;;;;;;5.67;3.87;;;;;;;;;;5076449;28;20177;-75
2023/12/19 05:42:37;;;;;;;5.80;3.10;;;;;;;;;;5075973;28;20239;-74
2023/12/19 05:45:05;;;;;;;5.57;3.80;;;;;;;;;;5059280;28;20288;-78
2023/12/19 05:47:31;;;;;;;6.40;4.17;;;;;;;;;;5093881;28;20243;-76
2023/12/19 05:49:58;;;;;;;6.30;4.07;;;;;;;;;;5059096;28;20280;-78
2023/12/19 05:52:25;;;;;;;7.30;4.37;;;;;;;;;;5059502;28;20230;-78
2023/12/19 05:54:52;;;;;;;7.37;4.50;;;;;;;;;;5076446;28;20185;-78
2023/12/19 05:57:18;;;;;;;6.53;4.53;;;;;;;;;;5076119;28;20652;-76
2023/12/19 05:59:45;;;;;;;7.33;4.50;;;;;;;;;;5075824;28;20520;-77
2023/12/19 06:02:12;;;;;;;7.10;4.80;;;;;;;;;;5093199;28;20272;-77
2023/12/19 06:04:39;;;;;;;6.90;5.00;;;;;;;;;;5079382;28;20196;-77
2023/12/19 06:07:06;;;;;;;7.07;4.67;;;;;;;;;;5079923;28;20663;-78
2023/12/19 06:09:32;;;;;;;4.83;3.63;;;;;;;;;;5063603;28;20291;-77
2023/12/19 06:11:59;;;;;;;4.27;2.93;;;;;;;;;;5079899;28;20189;-80
2023/12/19 06:14:26;;;;;;;5.30;3.50;;;;;;;;;;5063836;28;20194;-78
2023/12/19 06:20:53;;;;;;;4.17;2.47;;;;;;;;;;5098040;28;20164;-77
2023/12/19 06:23:19;;;;;;;4.20;3.20;;;;;;;;;;5097468;28;20724;-77
2023/12/19 06:25:46;;;;;;;6.40;4.03;;;;;;;;;;5079390;28;20201;-77
2023/12/19 06:28:15;;;;;;;5.87;3.70;;;;;;;;;;5062522;28;20226;-78
2023/12/19 06:30:41;;;;;;;4.63;3.27;;;;;;;;;;5079745;28;20185;-78
2023/12/19 06:33:08;;;;;;;5.33;3.53;;;;;;;;;;5062835;28;20189;-77
2023/12/19 06:35:39;;;;;;;4.73;3.40;;;;;;;;;;5063546;28;20192;-77
2023/12/19 06:38:05;;;;;;;6.17;3.70;;;;;;;;;;5079761;28;20182;-77
2023/12/19 06:40:32;;;;;;;4.37;3.10;;;;;;;;;;5062648;28;20186;-77
2023/12/19 06:42:59;;;;;;;5.13;3.27;;;;;;;;;;5079513;28;20177;-79
2023/12/19 06:45:25;;;;;;;4.63;3.37;;;;;;;;;;5062622;28;20186;-78
2023/12/19 06:48:10;;;;;;;4.23;2.97;;;;;;;;;;5079514;28;20699;-77
2023/12/19 06:50:37;;;;;;;5.47;3.30;;;;;;;;;;5079136;28;20632;-77
2023/12/19 06:56:15;;;;;;;4.73;3.30;;;;;;;;;;5096879;28;20290;-79
2023/12/19 07:02:36;;;;;;;5.00;3.43;;;;;;;;;;5096843;28;20156;-77
2023/12/19 07:05:03;;;;;;;3.07;1.83;;;;;;;;;;5078862;28;20641;-81
2023/12/19 07:07:30;;;;;;;6.97;4.33;;;;;;;;;;5079045;28;20217;-78
2023/12/19 07:09:57;;;;;;;4.17;2.77;;;;;;;;;;5096808;28;20181;-77
2023/12/19 07:12:24;;;;;;;4.57;3.10;;;;;;;;;;5078812;28;20574;-76
2023/12/19 07:14:50;;;;;;;5.60;3.77;;;;;;;;;;5096744;28;20187;-77
2023/12/19 07:17:17;;;;;;;4.73;3.57;;;;;;;;;;5079063;28;20536;-78
2023/12/19 07:19:45;;;;;;;5.37;3.80;;;;;;;;;;5078769;28;20236;-77
2023/12/19 07:22:12;;;;;;;4.40;3.30;;;;;;;;;;5062379;28;20209;-77
2023/12/19 07:24:38;;;;;;;5.07;3.30;;;;;;;;;;5079116;28;20234;-77
2023/12/19 07:27:06;;;;;;;4.63;2.63;;;;;;;;;;5079182;28;20201;-77
2023/12/19 07:29:33;;;;;;;6.00;3.63;;;;;;;;;;5062364;28;20193;-77
2023/12/19 07:32:00;;;;;;;6.90;4.17;;;;;;;;;;5079296;28;20629;-77
2023/12/19 07:34:27;;;;;;;5.43;2.60;;;;;;;;;;5079529;28;20185;-75
2023/12/19 07:36:54;;;;;;;6.20;3.00;;;;;;;;;;5096684;28;20185;-77
2023/12/19 07:39:21;;;;;;;7.57;4.23;;;;;;;;;;5079065;28;20185;-78
2023/12/19 07:41:48;;;;;;;7.00;3.20;;;;;;;;;;5061757;28;20186;-77
2023/12/19 07:44:16;;;;;;;5.70;3.83;;;;;;;;;;5096411;28;20230;-78
2023/12/19 07:46:42;;;;;;;6.67;3.17;;;;;;;;;;5078383;28;20541;-78
2023/12/19 07:49:10;;;;;;;6.83;3.20;;;;;;;;;;5061807;28;20197;-77
2023/12/19 07:51:36;;;;;;;5.70;3.40;;;;;;;;;;5096142;28;20181;-76
2023/12/19 07:54:03;;;;;;;5.47;3.07;;;;;;;;;;5061795;28;20194;-76
2023/12/19 07:56:30;;;;;;;3.03;2.30;;;;;;;;;;5077909;28;20749;-77
2023/12/19 07:58:57;;;;;;;4.00;2.70;;;;;;;;;;5078164;28;20686;-76
2023/12/19 08:05:23;;;;;;;3.47;2.23;;;;;;;;;;5095940;28;20705;-77
2023/12/19 08:07:50;;;;;;;2.53;1.80;;;;;;;;;;5078302;28;20209;-79
2023/12/19 08:10:17;;;;;;;2.93;2.10;;;;;;;;;;5044824;28;20189;-77
2023/12/19 08:12:43;;;;;;;5.03;3.50;;;;;;;;;;5061673;28;20193;-77
2023/12/19 08:15:12;;;;;;;3.93;1.93;;;;;;;;;;5077823;28;20655;-77
2023/12/19 08:17:38;;;;;;;3.37;1.73;;;;;;;;;;5095833;28;20191;-76
2023/12/19 08:20:10;;;;;;;2.30;1.77;;;;;;;;;;5096330;28;20199;-76
2023/12/19 08:22:44;;;;;;;2.33;1.73;;;;;;;;;;5095536;28;20220;-77
2023/12/19 08:25:17;;;;;;;4.23;2.20;;;;;;;;;;5077505;28;20184;-76
2023/12/19 08:27:48;;;;;;;3.63;2.10;;;;;;;;;;5079422;28;20190;-76
2023/12/19 08:30:17;;;;;;;3.27;2.03;;;;;;;;;;5079221;28;20505;-80
2023/12/19 08:32:49;;;;;;;2.83;2.20;;;;;;;;;;5062318;28;20671;-76
2023/12/19 08:35:18;;;;;;;3.23;2.10;;;;;;;;;;5078294;28;20182;-76
2023/12/19 08:37:45;;;;;;;3.87;2.63;;;;;;;;;;5095437;28;20204;-75
2023/12/19 08:40:12;;;;;;;5.47;3.10;;;;;;;;;;5077651;28;20189;-76
2023/12/19 08:42:39;;;;;;;5.03;3.20;;;;;;;;;;5094809;28;20621;-75
2023/12/19 08:45:16;;;;;;;6.20;3.67;;;;;;;;;;5060787;28;20616;-75
2023/12/19 08:47:44;;;;;;;4.23;2.60;;;;;;;;;;5060266;28;20618;-76
2023/12/19 08:50:12;;;;;;;4.13;2.07;;;;;;;;;;5077728;28;20182;-75
2023/12/19 08:52:40;;;;;;;3.93;2.30;;;;;;;;;;5094853;28;20551;-75
2023/12/19 08:55:25;;;;;;;2.50;1.90;;;;;;;;;;5079878;28;20248;-76
2023/12/19 08:57:52;;;;;;;3.27;1.80;;;;;;;;;;5096386;28;20327;-77
2023/12/19 09:00:36;;;;;;;3.17;1.73;;;;;;;;;;5079592;28;20539;-77
2023/12/19 09:03:05;;;;;;;1.67;1.03;;;;;;;;;;5060278;28;20189;-75
2023/12/19 09:05:52;;;;;;;3.13;2.17;;;;;;;;;;5094901;28;20149;-75
2023/12/19 09:08:19;;;;;;;3.07;2.00;;;;;;;;;;5077780;28;20559;-76
2023/12/19 09:11:04;;;;;;;2.57;1.70;;;;;;;;;;5093964;28;20192;-77
2023/12/19 09:13:33;;;;;;;3.30;1.83;;;;;;;;;;5077455;28;20486;-77
2023/12/19 09:16:17;;;;;;;1.93;1.03;;;;;;;;;;5094808;28;20192;-78
2023/12/19 09:18:43;;;;;;;3.17;2.00;;;;;;;;;;5059767;28;20239;-76
2023/12/19 09:21:28;;;;;;;2.93;2.07;;;;;;;;;;5094302;28;20153;-76
2023/12/19 09:23:55;;;;;;;4.17;2.33;;;;;;;;;;5094760;28;20207;-76
2023/12/19 09:26:39;;;;;;;4.17;2.37;;;;;;;;;;5065077;28;20620;-76
2023/12/19 09:29:06;;;;;;;3.17;1.90;;;;;;;;;;5094173;28;20189;-77
2023/12/19 09:31:33;;;;;;;4.43;2.03;;;;;;;;;;5076534;28;20217;-79
2023/12/19 09:34:00;;;;;;;3.67;2.27;;;;;;;;;;5094698;28;20185;-78
2023/12/19 09:36:27;;;;;;;3.83;1.87;;;;;;;;;;5076291;28;20181;-76
2023/12/19 09:39:14;;;;;;;3.30;1.93;;;;;;;;;;5094438;28;20234;-76
2023/12/19 09:41:47;;;;;;;3.23;2.10;;;;;;;;;;5060018;28;20193;-77
2023/12/19 09:44:31;;;;;;;3.37;2.20;;;;;;;;;;5092746;28;20173;-76
2023/12/19 09:46:58;;;;;;;2.97;1.87;;;;;;;;;;5092799;28;20296;-77
2023/12/19 09:49:43;;;;;;;3.50;2.40;;;;;;;;;;5094458;28;20165;-77
2023/12/19 09:52:12;;;;;;;2.50;1.80;;;;;;;;;;5042975;28;20625;-78
2023/12/19 09:54:40;;;;;;;4.80;2.03;;;;;;;;;;5059843;28;20581;-76
2023/12/19 09:57:08;;;;;;;3.30;2.20;;;;;;;;;;5092575;28;20213;-76
2023/12/19 09:59:35;;;;;;;2.87;1.60;;;;;;;;;;5076869;28;20193;-77
2023/12/19 10:02:08;;;;;;;3.70;2.30;;;;;;;;;;5061979;28;20170;-77
2023/12/19 10:04:34;;;;;;;2.00;1.73;;;;;;;;;;5076450;28;20185;-79
2023/12/19 10:07:01;;;;;;;4.00;2.00;;;;;;;;;;5059319;28;20197;-77
2023/12/19 10:09:55;;;;;;;4.47;2.30;;;;;;;;;;5079331;28;20263;-76
2023/12/19 10:12:27;;;;;;;3.50;2.30;;;;;;;;;;5076689;28;20613;-77
2023/12/19 10:15:15;;;;;;;3.53;2.13;;;;;;;;;;5093846;28;20244;-79
2023/12/19 10:18:07;;;;;;;4.10;2.67;;;;;;;;;;5076409;28;20165;-74
2023/12/19 10:20:37;;;;;;;2.73;2.20;;;;;;;;;;5095099;28;20213;-76
2023/12/19 10:23:04;;;;;;;3.40;2.67;;;;;;;;;;5093774;28;20177;-76
2023/12/19 10:25:32;;;;;;;3.33;2.53;;;;;;;;;;5059209;28;20188;-77
2023/12/19 10:28:12;;;;;;;3.50;2.47;;;;;;;;;;5061846;28;20216;-76
2023/12/19 10:30:39;;;;;;;4.70;2.57;;;;;;;;;;5076159;28;20189;-76
2023/12/19 10:33:07;;;;;;;4.80;3.37;;;;;;;;;;5076389;28;20211;-76
2023/12/19 10:35:46;;;;;;;3.77;2.87;;;;;;;;;;5060247;28;20508;-75
2023/12/19 10:38:36;;;;;;;3.80;2.60;;;;;;;;;;5079204;28;20146;-76
2023/12/19 10:41:05;;;;;;;6.30;2.90;;;;;;;;;;5075805;28;20193;-76
2023/12/19 10:43:37;;;;;;;6.17;3.47;;;;;;;;;;5075037;28;20252;-77
2023/12/19 10:46:04;;;;;;;5.73;3.67;;;;;;;;;;5075627;28;20168;-76
2023/12/19 10:48:31;;;;;;;5.00;3.40;;;;;;;;;;5059653;28;20205;-76
2023/12/19 10:50:58;;;;;;;4.97;3.40;;;;;;;;;;5079234;28;20230;-77
2023/12/19 10:53:26;;;;;;;6.30;3.97;;;;;;;;;;5079210;28;20235;-76
2023/12/19 10:55:52;;;;;;;8.37;4.70;;;;;;;;;;5045930;28;20703;-76
2023/12/19 10:58:20;;;;;;;6.80;3.97;;;;;;;;;;5062118;28;20189;-76
2023/12/19 11:00:47;;;;;;;9.97;4.53;;;;;;;;;;5096402;28;20197;-77
2023/12/19 11:03:18;;;;;;;9.27;3.87;;;;;;;;;;5079719;28;20694;-79
2023/12/19 11:05:47;;;;;;;6.20;4.13;;;;;;;;;;5062573;28;20180;-77
2023/12/19 11:08:16;;;;;;;6.90;4.40;;;;;;;;;;5078877;28;20660;-76
2023/12/19 11:11:03;;;;;;;6.53;4.40;;;;;;;;;;5062549;28;20185;-76
2023/12/19 11:13:31;;;;;;;5.73;3.80;;;;;;;;;;5097602;28;20189;-76
2023/12/19 11:16:19;;;;;;;4.17;3.30;;;;;;;;;;5063175;28;20215;-79
2023/12/19 11:18:50;;;;;;;6.40;4.07;;;;;;;;;;5079095;28;20205;-76
2023/12/19 11:21:21;;;;;;;7.30;4.43;;;;;;;;;;5062513;28;20186;-76
2023/12/19 11:24:08;;;;;;;4.83;3.57;;;;;;;;;;5079377;28;20177;-78
2023/12/19 11:26:37;;;;;;;6.47;4.10;;;;;;;;;;5078255;28;20204;-76
2023/12/19 11:29:04;;;;;;;6.27;4.00;;;;;;;;;;5078877;28;20186;-77
2023/12/19 11:31:31;;;;;;;7.23;4.27;;;;;;;;;;5096387;28;20185;-78
2023/12/19 11:33:59;;;;;;;7.50;3.80;;;;;;;;;;5062402;28;20258;-77
2023/12/19 11:36:26;;;;;;;6.90;4.17;;;;;;;;;;5062795;28;20197;-76
2023/12/19 11:39:11;;;;;;;8.03;4.50;;;;;;;;;;5079297;28;20286;-76
2023/12/19 11:41:56;;;;;;;6.13;3.93;;;;;;;;;;5095439;28;20177;-76
2023/12/19 11:44:39;;;;;;;6.50;3.83;;;;;;;;;;5061857;28;20193;-77
2023/12/19 11:47:13;;;;;;;7.60;4.33;;;;;;;;;;5078635;28;20197;-77
2023/12/19 11:49:39;;;;;;;5.97;4.00;;;;;;;;;;5078397;28;20301;-77
2023/12/19 11:52:35;;;;;;;5.70;4.00;;;;;;;;;;5081418;28;20244;-77
2023/12/19 11:55:05;;;;;;;5.03;3.30;;;;;;;;;;5079085;28;20528;-77
2023/12/19 11:57:33;;;;;;;5.23;3.70;;;;;;;;;;5061536;28;20648;-77
2023/12/19 12:00:00;;;;;;;4.67;3.17;;;;;;;;;;5077450;28;20196;-75
2023/12/19 12:02:37;;;;;;;4.53;3.27;;;;;;;;;;5095560;28;20178;-76
2023/12/19 12:05:21;;;;;;;7.80;4.20;;;;;;;;;;5092314;28;20166;-76
2023/12/19 12:07:48;;;;;;;7.87;4.37;;;;;;;;;;5078206;28;20749;-76
2023/12/19 12:10:21;;;;;;;6.27;4.40;;;;;;;;;;5078063;28;20528;-77
2023/12/19 12:12:49;;;;;;;7.97;4.93;;;;;;;;;;5079072;28;20228;-77
2023/12/19 12:15:34;;;;;;;7.07;4.70;;;;;;;;;;5080545;28;20211;-77
2023/12/19 12:18:01;;;;;;;8.00;5.13;;;;;;;;;;5077741;28;20219;-76
2023/12/19 12:20:33;;;;;;;7.83;4.23;;;;;;;;;;5077909;28;20578;-76
2023/12/19 12:23:00;;;;;;;9.47;5.20;;;;;;;;;;5061726;28;20195;-76
2023/12/19 12:25:27;;;;;;;7.27;4.63;;;;;;;;;;5077674;28;20197;-77
2023/12/19 12:28:10;;;;;;;5.33;3.90;;;;;;;;;;5078111;28;20579;-76
2023/12/19 12:30:38;;;;;;;6.53;4.40;;;;;;;;;;5078219;28;20606;-77
2023/12/19 12:33:05;;;;;;;8.77;4.60;;;;;;;;;;5095684;28;20211;-76
2023/12/19 12:35:33;;;;;;;6.77;4.20;;;;;;;;;;5077308;28;20227;-77
2023/12/19 12:38:00;;;;;;;6.30;3.97;;;;;;;;;;5095899;28;20197;-76
2023/12/19 12:40:27;;;;;;;6.80;4.57;;;;;;;;;;5095363;28;20621;-76
2023/12/19 12:43:13;;;;;;;5.80;3.83;;;;;;;;;;5077236;28;20188;-75
2023/12/19 12:45:40;;;;;;;6.70;4.37;;;;;;;;;;5095893;28;20181;-75
2023/12/19 12:48:13;;;;;;;6.50;4.47;;;;;;;;;;5095064;28;20201;-76
2023/12/19 12:50:40;;;;;;;5.77;3.80;;;;;;;;;;5077661;28;20165;-76
2023/12/19 12:53:13;;;;;;;5.73;3.50;;;;;;;;;;5061453;28;20498;-76
2023/12/19 12:55:40;;;;;;;6.90;4.60;;;;;;;;;;5094756;28;20188;-75
2023/12/19 12:58:07;;;;;;;7.57;4.63;;;;;;;;;;5060342;28;20197;-76
2023/12/19 13:00:34;;;;;;;6.73;4.80;;;;;;;;;;5093406;28;20216;-76
2023/12/19 13:03:02;;;;;;;7.23;5.10;;;;;;;;;;5095203;28;20521;-77
2023/12/19 13:05:30;;;;;;;8.07;5.50;;;;;;;;;;5076611;28;20195;-75
2023/12/19 13:07:57;;;;;;;10.63;6.70;;;;;;;;;;5094582;28;20327;-76
2023/12/19 13:10:24;;;;;;;11.50;6.37;;;;;;;;;;5076833;28;20188;-76
2023/12/19 13:12:51;;;;;;;9.17;5.60;;;;;;;;;;5094989;28;20205;-76
2023/12/19 13:15:18;;;;;;;9.07;5.60;;;;;;;;;;5076558;28;20178;-76
2023/12/19 13:17:45;;;;;;;9.33;6.00;;;;;;;;;;5093613;28;20230;-76
2023/12/19 13:20:13;;;;;;;7.07;5.07;;;;;;;;;;5076817;28;20208;-76
2023/12/19 13:22:41;;;;;;;6.90;4.87;;;;;;;;;;5077078;28;20184;-76
2023/12/19 13:25:09;;;;;;;7.80;4.47;;;;;;;;;;5076891;28;20217;-76
2023/12/19 13:27:36;;;;;;;6.33;4.83;;;;;;;;;;5076697;28;20265;-77
2023/12/19 13:30:04;;;;;;;7.73;5.50;;;;;;;;;;5076480;28;20184;-76
2023/12/19 13:32:31;;;;;;;5.60;4.17;;;;;;;;;;5076154;28;20177;-75
2023/12/19 13:34:58;;;;;;;8.37;5.00;;;;;;;;;;5094785;28;20621;-76
2023/12/19 13:37:25;;;;;;;6.27;4.13;;;;;;;;;;5076546;28;20196;-75
2023/12/19 13:39:52;;;;;;;5.63;3.90;;;;;;;;;;5076640;28;20189;-75
2023/12/19 13:46:19;;;;;;;6.97;4.73;;;;;;;;;;5094356;28;20149;-75
2023/12/19 13:48:46;;;;;;;8.73;5.70;;;;;;;;;;5093329;28;20233;-75
2023/12/19 13:51:30;;;;;;;9.63;5.37;;;;;;;;;;5077059;28;20231;-74
2023/12/19 13:53:57;;;;;;;9.73;6.50;;;;;;;;;;5076434;28;20177;-75
2023/12/19 13:56:24;;;;;;;9.13;6.50;;;;;;;;;;5076469;28;20217;-76
2023/12/19 13:58:53;;;;;;;9.20;6.23;;;;;;;;;;5076443;28;20181;-75
2023/12/19 14:01:19;;;;;;;10.10;6.27;;;;;;;;;;5076214;28;20200;-74
2023/12/19 14:04:03;;;;;;;8.17;5.87;;;;;;;;;;5094503;28;20204;-75
2023/12/19 14:06:31;;;;;;;8.47;6.10;;;;;;;;;;5093283;28;20178;-74
2023/12/19 14:09:19;;;;;;;6.40;4.63;;;;;;;;;;5093693;28;20671;-75
2023/12/19 14:11:46;;;;;;;6.40;4.80;;;;;;;;;;5077123;28;20240;-73
2023/12/19 14:14:13;;;;;;;9.00;5.87;;;;;;;;;;5076323;28;20185;-74
2023/12/19 14:16:40;;;;;;;7.30;4.87;;;;;;;;;;5094436;28;20178;-75
2023/12/19 14:19:07;;;;;;;6.47;4.70;;;;;;;;;;5075913;28;20209;-75
2023/12/19 14:21:37;;;;;;;7.27;5.10;;;;;;;;;;5075821;28;20268;-74
2023/12/19 14:24:05;;;;;;;6.57;4.43;;;;;;;;;;5077412;28;20248;-75
2023/12/19 14:26:36;;;;;;;7.13;5.00;;;;;;;;;;5097670;28;20543;-77
2023/12/19 14:29:06;;;;;;;7.63;4.77;;;;;;;;;;5080581;28;20198;-77
2023/12/19 14:31:33;;;;;;;7.97;4.80;;;;;;;;;;5097763;28;20183;-80
2023/12/19 14:34:01;;;;;;;7.73;5.60;;;;;;;;;;5079817;28;20184;-79
2023/12/19 14:36:29;;;;;;;10.33;6.40;;;;;;;;;;5080429;28;20188;-75
2023/12/19 14:38:59;;;;;;;9.17;6.20;;;;;;;;;;5079882;28;20211;-78
2023/12/19 14:41:25;;;;;;;10.73;5.80;;;;;;;;;;5063732;28;20276;-78
2023/12/19 14:43:52;;;;;;;11.03;7.43;;;;;;;;;;5097637;28;20177;-74
2023/12/19 14:46:19;;;;;;;11.50;7.63;;;;;;;;;;5097646;28;20239;-77
2023/12/19 14:48:46;;;;;;;10.13;6.60;;;;;;;;;;5097450;28;20197;-76
2023/12/19 14:51:14;;;;;;;9.93;6.00;;;;;;;;;;5079143;28;20208;-76
2023/12/19 14:53:41;;;;;;;8.97;5.80;;;;;;;;;;5097164;28;20178;-76
2023/12/19 14:56:08;;;;;;;10.93;6.30;;;;;;;;;;5062810;28;20225;-81
2023/12/19 14:58:35;;;;;;;10.53;6.83;;;;;;;;;;5097952;28;20176;-77
2023/12/19 15:01:02;;;;;;;9.17;5.90;;;;;;;;;;5096105;28;20272;-77
2023/12/19 15:03:29;;;;;;;12.03;7.50;;;;;;;;;;5097532;28;20174;-78
2023/12/19 15:06:13;;;;;;;14.43;8.23;;;;;;;;;;5081900;28;20607;-78
2023/12/19 15:08:40;;;;;;;8.67;5.80;;;;;;;;;;5096667;28;20208;-78
2023/12/19 15:11:07;;;;;;;10.97;6.67;;;;;;;;;;5078935;28;20181;-78
2023/12/19 15:13:34;;;;;;;8.07;5.50;;;;;;;;;;5096766;28;20261;-76
2023/12/19 15:16:00;;;;;;;9.00;6.20;;;;;;;;;;5097439;28;20563;-73
2023/12/19 15:18:45;;;;;;;7.30;4.93;;;;;;;;;;5043189;28;20225;-76
2023/12/19 15:21:13;;;;;;;7.83;4.57;;;;;;;;;;5067667;28;20229;-76
2023/12/19 15:23:42;;;;;;;6.37;4.17;;;;;;;;;;5049604;28;20194;-76
2023/12/19 15:26:09;;;;;;;9.43;6.27;;;;;;;;;;5049299;28;20255;-74
2023/12/19 15:28:36;;;;;;;7.50;5.10;;;;;;;;;;5049448;28;20209;-75
2023/12/19 15:31:03;;;;;;;10.17;6.13;;;;;;;;;;5032799;28;20221;-73
2023/12/19 15:33:30;;;;;;;13.70;7.20;;;;;;;;;;5032854;28;20194;-74
2023/12/19 15:35:57;;;;;;;11.43;6.33;;;;;;;;;;5032395;28;20561;-74
2023/12/19 15:38:24;;;;;;;9.73;6.07;;;;;;;;;;5049190;28;20276;-75
2023/12/19 15:40:50;;;;;;;9.63;6.10;;;;;;;;;;5066802;28;20194;-75
2023/12/19 15:43:17;;;;;;;7.53;5.37;;;;;;;;;;5032180;28;20528;-76
2023/12/19 15:46:06;;;;;;;9.27;6.10;;;;;;;;;;5051962;28;20191;-74
2023/12/19 15:48:34;;;;;;;9.17;5.63;;;;;;;;;;5066413;28;20301;-74
2023/12/19 15:51:02;;;;;;;6.70;5.03;;;;;;;;;;5049231;28;20529;-75
2023/12/19 15:53:29;;;;;;;8.53;5.93;;;;;;;;;;5066554;28;20268;-75
2023/12/19 15:55:56;;;;;;;8.60;5.43;;;;;;;;;;5069739;28;20226;-77